^^
Saratoga-Weather Station Historical Data
Daily Summary for September 20, 2021 Units:  Both    English   Metric
Daily Weekly Monthly Yearly Custom
  High: Low: Average:
Temperature: 62.1 °F /  16.7 °C 47.7 °F /  8.7 °C 56.5 °F /  13.6 °C
Dew Point: 48.2 °F /  9 °C 44.1 °F /  6.7 °C 46.2 °F /  7.9 °C
Humidity: 93% 53% 70%
Wind Speed: 8.9mph /  14.3km/h - 2.2mph /  3.6km/h
Wind Gust: 13mph /  20.9km/h - -
Wind- - WSW
Pressure: 30.2 in /  1022.4 hPa 29.9 in /  1013.2 hPa -
Precipitation: 0 in /  0.0 mm    
Historical Graphs
 
 
Tabular Data for September 20, 2021
Time Temperature Dew Point Pressure Wind Wind Speed Wind Gust Humidity Rainfall Rate (Hourly) solar
06:49 47.7 °F /  8.7 °C 45.7 °F /  7.6 °C 30.2in /  1021.3hPa Calm   1mph /  1.6km/h 93% 0in /  0.0mm 47 W/m2
06:54 47.8 °F /  8.8 °C 45.9 °F /  7.7 °C 30.2in /  1021.3hPa Calm     93% 0in /  0.0mm 56 W/m2
06:59 47.8 °F /  8.8 °C 45.9 °F /  7.7 °C 30.2in /  1021.3hPa West 2.9mph /  4.7km/h 4mph /  6.4km/h 93% 0in /  0.0mm 49 W/m2
07:04 48 °F /  8.9 °C 46 °F /  7.8 °C 30.2in /  1021.3hPa Calm   3mph /  4.8km/h 93% 0in /  0.0mm 56 W/m2
07:09 48 °F /  8.9 °C 46 °F /  7.8 °C 30.2in /  1021.3hPa WSW 4.9mph /  7.9km/h 5mph /  8km/h 93% 0in /  0.0mm 60 W/m2
07:14 48.2 °F /  9 °C 46.2 °F /  7.9 °C 30.2in /  1021.3hPa Calm   2mph /  3.2km/h 93% 0in /  0.0mm 67 W/m2
07:19 48.2 °F /  9 °C 46 °F /  7.8 °C 30.2in /  1021.3hPa West 2mph /  3.2km/h 5mph /  8km/h 92% 0in /  0.0mm 69 W/m2
07:24 48.4 °F /  9.1 °C 46.2 °F /  7.9 °C 30.2in /  1021.3hPa West 2mph /  3.2km/h 2mph /  3.2km/h 92% 0in /  0.0mm 84 W/m2
07:29 48.4 °F /  9.1 °C 46.2 °F /  7.9 °C 30.2in /  1021.3hPa West 2mph /  3.2km/h 3mph /  4.8km/h 92% 0in /  0.0mm 107 W/m2
07:34 48.7 °F /  9.3 °C 46.6 °F /  8.1 °C 30.2in /  1021.3hPa WNW 2.9mph /  4.7km/h 6mph /  9.7km/h 92% 0in /  0.0mm 97 W/m2
07:39 48.9 °F /  9.4 °C 46.8 °F /  8.2 °C 30.2in /  1021.7hPa WNW 6.9mph /  11.1km/h 8mph /  12.9km/h 92% 0in /  0.0mm 121 W/m2
07:44 49.1 °F /  9.5 °C 46.9 °F /  8.3 °C 30.2in /  1021.7hPa SSW 4mph /  6.4km/h 7mph /  11.3km/h 92% 0in /  0.0mm 128 W/m2
07:49 49.5 °F /  9.7 °C 46.9 °F /  8.3 °C 30.2in /  1021.7hPa WNW 2.9mph /  4.7km/h 8mph /  12.9km/h 91% 0in /  0.0mm 244 W/m2
07:54 49.8 °F /  9.9 °C 46.9 °F /  8.3 °C 30.2in /  1021.7hPa WNW 4mph /  6.4km/h 6mph /  9.7km/h 90% 0in /  0.0mm 132 W/m2
07:59 49.8 °F /  9.9 °C 46.8 °F /  8.2 °C 30.2in /  1021.7hPa West 4mph /  6.4km/h 9mph /  14.5km/h 89% 0in /  0.0mm 123 W/m2
08:04 49.6 °F /  9.8 °C 45.9 °F /  7.7 °C 30.2in /  1021.7hPa West 4mph /  6.4km/h 8mph /  12.9km/h 87% 0in /  0.0mm 86 W/m2
08:09 49.6 °F /  9.8 °C 46.2 °F /  7.9 °C 30.2in /  1021.7hPa West 6mph /  9.7km/h 9mph /  14.5km/h 88% 0in /  0.0mm 105 W/m2
08:14 50 °F /  10 °C 46.9 °F /  8.3 °C 30.2in /  1021.7hPa West 8.1mph /  13km/h 9mph /  14.5km/h 89% 0in /  0.0mm 98 W/m2
08:19 50 °F /  10 °C 46.6 °F /  8.1 °C 30.2in /  1021.7hPa WNW 2.9mph /  4.7km/h 8mph /  12.9km/h 88% 0in /  0.0mm 113 W/m2
08:24 49.8 °F /  9.9 °C 46 °F /  7.8 °C 30.2in /  1022.0hPa WNW 6.9mph /  11.1km/h 10mph /  16.1km/h 87% 0in /  0.0mm 125 W/m2
08:29 49.6 °F /  9.8 °C 45.9 °F /  7.7 °C 30.2in /  1022.0hPa West 6.9mph /  11.1km/h 9mph /  14.5km/h 87% 0in /  0.0mm 116 W/m2
08:34 49.8 °F /  9.9 °C 46 °F /  7.8 °C 30.2in /  1022.0hPa West 2.9mph /  4.7km/h 10mph /  16.1km/h 87% 0in /  0.0mm 174 W/m2
08:39 50.2 °F /  10.1 °C 46.8 °F /  8.2 °C 30.2in /  1022.0hPa West 2mph /  3.2km/h 4mph /  6.4km/h 88% 0in /  0.0mm 171 W/m2
08:44 50.2 °F /  10.1 °C 46.2 °F /  7.9 °C 30.2in /  1022.0hPa West 4mph /  6.4km/h 8mph /  12.9km/h 86% 0in /  0.0mm 90 W/m2
08:49 50.2 °F /  10.1 °C 46.2 °F /  7.9 °C 30.2in /  1022.0hPa West 2mph /  3.2km/h 7mph /  11.3km/h 86% 0in /  0.0mm 120 W/m2
08:54 50.4 °F /  10.2 °C 46.4 °F /  8 °C 30.2in /  1022.0hPa NW 2mph /  3.2km/h 7mph /  11.3km/h 86% 0in /  0.0mm 186 W/m2
08:59 50.5 °F /  10.3 °C 46.2 °F /  7.9 °C 30.2in /  1022.0hPa WNW 2mph /  3.2km/h 4mph /  6.4km/h 85% 0in /  0.0mm 225 W/m2
09:04 50.5 °F /  10.3 °C 46.2 °F /  7.9 °C 30.2in /  1022.4hPa West 8.1mph /  13km/h 8mph /  12.9km/h 85% 0in /  0.0mm 190 W/m2
09:09 50.4 °F /  10.2 °C 46 °F /  7.8 °C 30.2in /  1022.4hPa West 4mph /  6.4km/h 7mph /  11.3km/h 85% 0in /  0.0mm 153 W/m2
09:14 50.2 °F /  10.1 °C 45.9 °F /  7.7 °C 30.2in /  1022.4hPa WNW 4mph /  6.4km/h 6mph /  9.7km/h 85% 0in /  0.0mm 232 W/m2
09:19 50.2 °F /  10.1 °C 45.5 °F /  7.5 °C 30.2in /  1022.4hPa WNW 0.9mph /  1.4km/h 7mph /  11.3km/h 84% 0in /  0.0mm 243 W/m2
09:24 50.5 °F /  10.3 °C 46.2 °F /  7.9 °C 30.2in /  1022.4hPa SW 0.9mph /  1.4km/h 4mph /  6.4km/h 85% 0in /  0.0mm 192 W/m2
09:29 50.5 °F /  10.3 °C 46.6 °F /  8.1 °C 30.2in /  1022.0hPa WNW 2mph /  3.2km/h 4mph /  6.4km/h 86% 0in /  0.0mm 179 W/m2
09:34 50.7 °F /  10.4 °C 46.8 °F /  8.2 °C 30.2in /  1022.0hPa Calm   2mph /  3.2km/h 86% 0in /  0.0mm 179 W/m2
09:39 50.9 °F /  10.5 °C 46.9 °F /  8.3 °C 30.2in /  1022.4hPa West 2mph /  3.2km/h 4mph /  6.4km/h 86% 0in /  0.0mm 202 W/m2
09:44 50.7 °F /  10.4 °C 46.4 °F /  8 °C 30.2in /  1022.0hPa WSW 0.9mph /  1.4km/h 3mph /  4.8km/h 85% 0in /  0.0mm 234 W/m2
09:49 50.7 °F /  10.4 °C 46 °F /  7.8 °C 30.2in /  1022.0hPa NW 2.9mph /  4.7km/h 8mph /  12.9km/h 84% 0in /  0.0mm 229 W/m2
09:54 50.7 °F /  10.4 °C 46 °F /  7.8 °C 30.2in /  1022.4hPa West 2.9mph /  4.7km/h 6mph /  9.7km/h 84% 0in /  0.0mm 264 W/m2
09:59 50.9 °F /  10.5 °C 46.2 °F /  7.9 °C 30.2in /  1022.4hPa West 6.9mph /  11.1km/h 7mph /  11.3km/h 84% 0in /  0.0mm 221 W/m2
10:04 51.1 °F /  10.6 °C 46.4 °F /  8 °C 30.2in /  1022.4hPa West 4mph /  6.4km/h 5mph /  8km/h 84% 0in /  0.0mm 216 W/m2
10:09 50.7 °F /  10.4 °C 45.7 °F /  7.6 °C 30.2in /  1022.4hPa WNW 0.9mph /  1.4km/h 5mph /  8km/h 83% 0in /  0.0mm 248 W/m2
10:14 50.7 °F /  10.4 °C 45.7 °F /  7.6 °C 30.2in /  1022.4hPa Calm   3mph /  4.8km/h 83% 0in /  0.0mm 264 W/m2
10:19 51.1 °F /  10.6 °C 46.4 °F /  8 °C 30.2in /  1022.4hPa WSW 4mph /  6.4km/h 6mph /  9.7km/h 84% 0in /  0.0mm 269 W/m2
10:24 51.4 °F /  10.8 °C 46.4 °F /  8 °C 30.2in /  1022.4hPa West 6mph /  9.7km/h 8mph /  12.9km/h 83% 0in /  0.0mm 506 W/m2
10:29 51.6 °F /  10.9 °C 46.6 °F /  8.1 °C 30.2in /  1022.4hPa WNW 8.9mph /  14.3km/h 9mph /  14.5km/h 83% 0in /  0.0mm 367 W/m2
10:34 51.6 °F /  10.9 °C 46.2 °F /  7.9 °C 30.2in /  1022.4hPa WSW 4.9mph /  7.9km/h 7mph /  11.3km/h 82% 0in /  0.0mm 309 W/m2
10:39 51.8 °F /  11 °C 46.4 °F /  8 °C 30.2in /  1022.4hPa NE 0.9mph /  1.4km/h 6mph /  9.7km/h 82% 0in /  0.0mm 292 W/m2
10:44 52.2 °F /  11.2 °C 46.6 °F /  8.1 °C 30.2in /  1022.4hPa WNW 2mph /  3.2km/h 3mph /  4.8km/h 81% 0in /  0.0mm 385 W/m2
10:49 52.5 °F /  11.4 °C 46.6 °F /  8.1 °C 30.2in /  1022.4hPa West 0.9mph /  1.4km/h 9mph /  14.5km/h 80% 0in /  0.0mm 322 W/m2
10:54 52.7 °F /  11.5 °C 46.8 °F /  8.2 °C 30.2in /  1022.4hPa WNW 4mph /  6.4km/h 7mph /  11.3km/h 80% 0in /  0.0mm 313 W/m2
10:59 52.5 °F /  11.4 °C 46.6 °F /  8.1 °C 30.2in /  1022.4hPa West 2.9mph /  4.7km/h 7mph /  11.3km/h 80% 0in /  0.0mm 350 W/m2
11:04 52.5 °F /  11.4 °C 46.6 °F /  8.1 °C 30.2in /  1022.4hPa WSW 2.9mph /  4.7km/h 10mph /  16.1km/h 80% 0in /  0.0mm 399 W/m2
11:09 52.5 °F /  11.4 °C 46.6 °F /  8.1 °C 30.2in /  1022.4hPa WNW 2.9mph /  4.7km/h 3mph /  4.8km/h 80% 0in /  0.0mm 570 W/m2
11:14 52.7 °F /  11.5 °C 46.4 °F /  8 °C 30.2in /  1022.4hPa West 2mph /  3.2km/h 3mph /  4.8km/h 79% 0in /  0.0mm 422 W/m2
11:19 52.3 °F /  11.3 °C 45.7 °F /  7.6 °C 30.2in /  1022.4hPa NW 0.9mph /  1.4km/h 6mph /  9.7km/h 78% 0in /  0.0mm 522 W/m2
11:25 52.5 °F /  11.4 °C 46.6 °F /  8.1 °C 30.2in /  1022.4hPa WNW 4.9mph /  7.9km/h 8mph /  12.9km/h 80% 0in /  0.0mm 429 W/m2
11:30 52.5 °F /  11.4 °C 46.2 °F /  7.9 °C 30.2in /  1022.4hPa North 2mph /  3.2km/h 8mph /  12.9km/h 79% 0in /  0.0mm 432 W/m2
11:35 52.9 °F /  11.6 °C 46.6 °F /  8.1 °C 30.2in /  1022.4hPa West 6mph /  9.7km/h 10mph /  16.1km/h 79% 0in /  0.0mm 425 W/m2
11:40 53.1 °F /  11.7 °C 46.8 °F /  8.2 °C 30.2in /  1022.0hPa West 2.9mph /  4.7km/h 4mph /  6.4km/h 79% 0in /  0.0mm 255 W/m2
11:45 53.2 °F /  11.8 °C 46.9 °F /  8.3 °C 30.2in /  1022.0hPa NW 0.9mph /  1.4km/h 3mph /  4.8km/h 79% 0in /  0.0mm 520 W/m2
11:50 53.8 °F /  12.1 °C 46.8 °F /  8.2 °C 30.2in /  1022.0hPa Calm   3mph /  4.8km/h 77% 0in /  0.0mm 399 W/m2
11:55 54.1 °F /  12.3 °C 46.8 °F /  8.2 °C 30.2in /  1022.0hPa WNW 4mph /  6.4km/h 5mph /  8km/h 76% 0in /  0.0mm 387 W/m2
12:00 54.5 °F /  12.5 °C 47.1 °F /  8.4 °C 30.2in /  1022.0hPa NW 8.1mph /  13km/h 8mph /  12.9km/h 76% 0in /  0.0mm 359 W/m2
12:05 54.9 °F /  12.7 °C 47.5 °F /  8.6 °C 30.2in /  1022.0hPa WSW 4mph /  6.4km/h 10mph /  16.1km/h 76% 0in /  0.0mm 991 W/m2
12:10 55.2 °F /  12.9 °C 47.1 °F /  8.4 °C 30.2in /  1022.0hPa ENE 0.9mph /  1.4km/h 8mph /  12.9km/h 74% 0in /  0.0mm 1150 W/m2
12:15 55.9 °F /  13.3 °C 48.2 °F /  9 °C 30.2in /  1022.0hPa NW 4.9mph /  7.9km/h 10mph /  16.1km/h 75% 0in /  0.0mm 1121 W/m2
12:20 56.8 °F /  13.8 °C 48.2 °F /  9 °C 30.2in /  1021.7hPa NNW 4mph /  6.4km/h 7mph /  11.3km/h 73% 0in /  0.0mm 1176 W/m2
12:25 56.8 °F /  13.8 °C 47.5 °F /  8.6 °C 30.2in /  1021.7hPa NW 2.9mph /  4.7km/h 9mph /  14.5km/h 71% 0in /  0.0mm 357 W/m2
12:30 56.7 °F /  13.7 °C 47.7 °F /  8.7 °C 30.2in /  1021.7hPa West 4mph /  6.4km/h 8mph /  12.9km/h 72% 0in /  0.0mm 357 W/m2
12:35 56.8 °F /  13.8 °C 47.5 °F /  8.6 °C 30.2in /  1021.3hPa WNW 4.9mph /  7.9km/h 5mph /  8km/h 71% 0in /  0.0mm 264 W/m2
12:40 56.3 °F /  13.5 °C 46.6 °F /  8.1 °C 30.2in /  1021.7hPa NNE 0.9mph /  1.4km/h 2mph /  3.2km/h 70% 0in /  0.0mm 230 W/m2
12:45 56.7 °F /  13.7 °C 47.7 °F /  8.7 °C 30.2in /  1021.3hPa West 6.9mph /  11.1km/h 7mph /  11.3km/h 72% 0in /  0.0mm 1041 W/m2
12:50 57.2 °F /  14 °C 46.8 °F /  8.2 °C 30.2in /  1021.3hPa West 4mph /  6.4km/h 6mph /  9.7km/h 68% 0in /  0.0mm 976 W/m2
12:55 57.4 °F /  14.1 °C 46 °F /  7.8 °C 30.2in /  1021.3hPa WNW 2mph /  3.2km/h 6mph /  9.7km/h 66% 0in /  0.0mm 997 W/m2
13:00 57.6 °F /  14.2 °C 46.2 °F /  7.9 °C 30.2in /  1021.3hPa West 4mph /  6.4km/h 13mph /  20.9km/h 66% 0in /  0.0mm 991 W/m2
13:05 57.9 °F /  14.4 °C 47.5 °F /  8.6 °C 30.2in /  1021.3hPa ENE 2.9mph /  4.7km/h 6mph /  9.7km/h 68% 0in /  0.0mm 1071 W/m2
13:10 58.1 °F /  14.5 °C 47.7 °F /  8.7 °C 30.2in /  1021.3hPa WNW 2mph /  3.2km/h 13mph /  20.9km/h 68% 0in /  0.0mm 1120 W/m2
13:15 58.6 °F /  14.8 °C 47.7 °F /  8.7 °C 30.2in /  1021.0hPa WNW 8.1mph /  13km/h 10mph /  16.1km/h 67% 0in /  0.0mm 1063 W/m2
13:20 58.5 °F /  14.7 °C 46.4 °F /  8 °C 30.2in /  1021.0hPa West 4mph /  6.4km/h 5mph /  8km/h 64% 0in /  0.0mm 1020 W/m2
13:25 58.5 °F /  14.7 °C 47.1 °F /  8.4 °C 30.2in /  1021.0hPa NW 2mph /  3.2km/h 10mph /  16.1km/h 66% 0in /  0.0mm 1035 W/m2
13:30 59.2 °F /  15.1 °C 46.9 °F /  8.3 °C 30.2in /  1021.0hPa NNW 0.9mph /  1.4km/h 4mph /  6.4km/h 64% 0in /  0.0mm 972 W/m2
13:35 59.4 °F /  15.2 °C 46.8 °F /  8.2 °C 30.1in /  1020.7hPa NW 0.9mph /  1.4km/h 3mph /  4.8km/h 63% 0in /  0.0mm 861 W/m2
13:40 59.5 °F /  15.3 °C 47.8 °F /  8.8 °C 30.1in /  1020.7hPa South 2mph /  3.2km/h 3mph /  4.8km/h 65% 0in /  0.0mm 904 W/m2
13:45 60.3 °F /  15.7 °C 48 °F /  8.9 °C 30.1in /  1020.7hPa WNW 2.9mph /  4.7km/h 6mph /  9.7km/h 64% 0in /  0.0mm 904 W/m2
13:50 60.3 °F /  15.7 °C 46.4 °F /  8 °C 30.1in /  1020.7hPa WNW 2mph /  3.2km/h 8mph /  12.9km/h 60% 0in /  0.0mm 860 W/m2
13:55 59.7 °F /  15.4 °C 46.8 °F /  8.2 °C 30.1in /  1020.7hPa West 0.9mph /  1.4km/h 2mph /  3.2km/h 62% 0in /  0.0mm 267 W/m2
14:00 59.5 °F /  15.3 °C 46.6 °F /  8.1 °C 30.1in /  1020.7hPa Calm   4mph /  6.4km/h 62% 0in /  0.0mm 288 W/m2
14:05 59.4 °F /  15.2 °C 46.4 °F /  8 °C 30.1in /  1020.3hPa WNW 2mph /  3.2km/h 3mph /  4.8km/h 62% 0in /  0.0mm 316 W/m2
14:10 59.5 °F /  15.3 °C 46.6 °F /  8.1 °C 30.1in /  1020.3hPa NNW 2mph /  3.2km/h 3mph /  4.8km/h 62% 0in /  0.0mm 863 W/m2
14:15 60.3 °F /  15.7 °C 47.1 °F /  8.4 °C 30.1in /  1020.3hPa NNW 2mph /  3.2km/h 4mph /  6.4km/h 62% 0in /  0.0mm 861 W/m2
14:20 60.8 °F /  16 °C 46.8 °F /  8.2 °C 30.1in /  1020.0hPa West 2mph /  3.2km/h 4mph /  6.4km/h 60% 0in /  0.0mm 274 W/m2
14:25 60.8 °F /  16 °C 46.8 °F /  8.2 °C 30.1in /  1020.0hPa WNW 6.9mph /  11.1km/h 8mph /  12.9km/h 60% 0in /  0.0mm 882 W/m2
14:30 60.4 °F /  15.8 °C 46.4 °F /  8 °C 30.1in /  1020.3hPa WNW 2.9mph /  4.7km/h 7mph /  11.3km/h 60% 0in /  0.0mm 881 W/m2
14:35 60.6 °F /  15.9 °C 46.6 °F /  8.1 °C 30.1in /  1020.0hPa NNE 0.9mph /  1.4km/h 3mph /  4.8km/h 60% 0in /  0.0mm 865 W/m2
14:40 61 °F /  16.1 °C 46.6 °F /  8.1 °C 30.1in /  1020.0hPa WNW 0.9mph /  1.4km/h 6mph /  9.7km/h 59% 0in /  0.0mm 396 W/m2
14:45 60.6 °F /  15.9 °C 46.2 °F /  7.9 °C 30.1in /  1020.0hPa WNW 2.9mph /  4.7km/h 5mph /  8km/h 59% 0in /  0.0mm 397 W/m2
14:50 60.8 °F /  16 °C 46.4 °F /  8 °C 30.1in /  1020.0hPa WSW 4.9mph /  7.9km/h 7mph /  11.3km/h 59% 0in /  0.0mm 780 W/m2
14:55 61.2 °F /  16.2 °C 46.2 °F /  7.9 °C 30.1in /  1019.6hPa WNW 4.9mph /  7.9km/h 10mph /  16.1km/h 58% 0in /  0.0mm 589 W/m2
15:00 61.3 °F /  16.3 °C 46.9 °F /  8.3 °C 30.1in /  1019.6hPa West 2.9mph /  4.7km/h 5mph /  8km/h 59% 0in /  0.0mm 371 W/m2
15:05 61.2 °F /  16.2 °C 45.9 °F /  7.7 °C 30.1in /  1019.6hPa ENE 0.9mph /  1.4km/h 5mph /  8km/h 57% 0in /  0.0mm 466 W/m2
15:10 61.2 °F /  16.2 °C 46.8 °F /  8.2 °C 30.1in /  1019.6hPa WNW 2.9mph /  4.7km/h 4mph /  6.4km/h 59% 0in /  0.0mm 643 W/m2
15:15 61.3 °F /  16.3 °C 46 °F /  7.8 °C 30.1in /  1019.6hPa NNW 2.9mph /  4.7km/h 3mph /  4.8km/h 57% 0in /  0.0mm 603 W/m2
15:20 61.5 °F /  16.4 °C 45.7 °F /  7.6 °C 30.1in /  1019.6hPa West 2mph /  3.2km/h 4mph /  6.4km/h 56% 0in /  0.0mm 571 W/m2
15:25 61.9 °F /  16.6 °C 46.9 °F /  8.3 °C 30.1in /  1019.6hPa WNW 4mph /  6.4km/h 4mph /  6.4km/h 58% 0in /  0.0mm 531 W/m2
15:30 61.7 °F /  16.5 °C 45.9 °F /  7.7 °C 30.1in /  1019.3hPa East 0.9mph /  1.4km/h 7mph /  11.3km/h 56% 0in /  0.0mm 485 W/m2
15:35 61.5 °F /  16.4 °C 46.2 °F /  7.9 °C 30.1in /  1019.3hPa NW 2mph /  3.2km/h 5mph /  8km/h 57% 0in /  0.0mm 417 W/m2
15:40 61.9 °F /  16.6 °C 46.4 °F /  8 °C 30.1in /  1019.3hPa SE 0.9mph /  1.4km/h 3mph /  4.8km/h 57% 0in /  0.0mm 452 W/m2
15:45 61.9 °F /  16.6 °C 46 °F /  7.8 °C 30.1in /  1019.3hPa ENE 4.9mph /  7.9km/h 10mph /  16.1km/h 56% 0in /  0.0mm 494 W/m2
15:50 61.5 °F /  16.4 °C 46.2 °F /  7.9 °C 30.1in /  1019.0hPa NW 2mph /  3.2km/h 6mph /  9.7km/h 57% 0in /  0.0mm 538 W/m2
15:55 61.9 °F /  16.6 °C 46 °F /  7.8 °C 30.1in /  1019.0hPa WNW 0.9mph /  1.4km/h 6mph /  9.7km/h 56% 0in /  0.0mm 357 W/m2
16:00 61.9 °F /  16.6 °C 46.9 °F /  8.3 °C 30.1in /  1019.0hPa North 2mph /  3.2km/h 3mph /  4.8km/h 58% 0in /  0.0mm 489 W/m2
16:05 62.1 °F /  16.7 °C 46.2 °F /  7.9 °C 30.1in /  1018.6hPa NW 2mph /  3.2km/h 6mph /  9.7km/h 56% 0in /  0.0mm 487 W/m2
16:10 62.1 °F /  16.7 °C 46.6 °F /  8.1 °C 30.1in /  1018.6hPa East 2mph /  3.2km/h 4mph /  6.4km/h 57% 0in /  0.0mm 362 W/m2
16:15 62.1 °F /  16.7 °C 45.7 °F /  7.6 °C 30.1in /  1018.6hPa North 4mph /  6.4km/h 5mph /  8km/h 55% 0in /  0.0mm 325 W/m2
16:20 61.7 °F /  16.5 °C 45.9 °F /  7.7 °C 30.1in /  1018.6hPa North 2mph /  3.2km/h 11mph /  17.7km/h 56% 0in /  0.0mm 320 W/m2
16:25 61.5 °F /  16.4 °C 44.2 °F /  6.8 °C 30.1in /  1018.3hPa NW 2.9mph /  4.7km/h 9mph /  14.5km/h 53% 0in /  0.0mm 315 W/m2
16:30 61.3 °F /  16.3 °C 45 °F /  7.2 °C 30.1in /  1018.3hPa NW 2mph /  3.2km/h 11mph /  17.7km/h 55% 0in /  0.0mm 301 W/m2
16:35 61.3 °F /  16.3 °C 45 °F /  7.2 °C 30.1in /  1018.3hPa WNW 8.1mph /  13km/h 9mph /  14.5km/h 55% 0in /  0.0mm 294 W/m2
16:40 61.3 °F /  16.3 °C 45.5 °F /  7.5 °C 30.1in /  1018.3hPa WNW 2.9mph /  4.7km/h 4mph /  6.4km/h 56% 0in /  0.0mm 274 W/m2
16:45 61.3 °F /  16.3 °C 45.5 °F /  7.5 °C 30.1in /  1018.3hPa ESE 2mph /  3.2km/h 6mph /  9.7km/h 56% 0in /  0.0mm 213 W/m2
16:50 61.3 °F /  16.3 °C 45.5 °F /  7.5 °C 30.1in /  1018.3hPa ENE 4.9mph /  7.9km/h 5mph /  8km/h 56% 0in /  0.0mm 241 W/m2
16:55 61.3 °F /  16.3 °C 45 °F /  7.2 °C 30.1in /  1018.0hPa NE 0.9mph /  1.4km/h 2mph /  3.2km/h 55% 0in /  0.0mm 218 W/m2
17:01 61.3 °F /  16.3 °C 46 °F /  7.8 °C 30.1in /  1018.0hPa NW 2.9mph /  4.7km/h 7mph /  11.3km/h 57% 0in /  0.0mm 209 W/m2
17:06 61.3 °F /  16.3 °C 46 °F /  7.8 °C 30.1in /  1018.0hPa NW 0.9mph /  1.4km/h 4mph /  6.4km/h 57% 0in /  0.0mm 237 W/m2
17:11 61.5 °F /  16.4 °C 44.8 °F /  7.1 °C 30.1in /  1018.0hPa NW 0.9mph /  1.4km/h 3mph /  4.8km/h 54% 0in /  0.0mm 220 W/m2
17:16 61.3 °F /  16.3 °C 45 °F /  7.2 °C 30.1in /  1018.0hPa WNW 0.9mph /  1.4km/h 4mph /  6.4km/h 55% 0in /  0.0mm 206 W/m2
17:21 61.3 °F /  16.3 °C 45.5 °F /  7.5 °C 30.1in /  1018.0hPa WNW 2.9mph /  4.7km/h 4mph /  6.4km/h 56% 0in /  0.0mm 183 W/m2
17:26 61.2 °F /  16.2 °C 45.3 °F /  7.4 °C 30.1in /  1018.0hPa WSW 0.9mph /  1.4km/h 9mph /  14.5km/h 56% 0in /  0.0mm 192 W/m2
17:31 61 °F /  16.1 °C 45.1 °F /  7.3 °C 30.1in /  1018.0hPa WNW 0.9mph /  1.4km/h 10mph /  16.1km/h 56% 0in /  0.0mm 232 W/m2
17:36 61 °F /  16.1 °C 45.1 °F /  7.3 °C 30.1in /  1017.6hPa North 2.9mph /  4.7km/h 6mph /  9.7km/h 56% 0in /  0.0mm 255 W/m2
17:41 61.2 °F /  16.2 °C 46.8 °F /  8.2 °C 30.1in /  1017.6hPa Calm   10mph /  16.1km/h 59% 0in /  0.0mm 236 W/m2
17:46 61.3 °F /  16.3 °C 45.5 °F /  7.5 °C 30.1in /  1017.6hPa NW 4.9mph /  7.9km/h 5mph /  8km/h 56% 0in /  0.0mm 234 W/m2
17:51 61.3 °F /  16.3 °C 45.5 °F /  7.5 °C 30.1in /  1017.6hPa East 2mph /  3.2km/h 9mph /  14.5km/h 56% 0in /  0.0mm 237 W/m2
17:56 61.3 °F /  16.3 °C 45.5 °F /  7.5 °C 30in /  1017.3hPa WNW 2mph /  3.2km/h 6mph /  9.7km/h 56% 0in /  0.0mm 281 W/m2
18:01 61.3 °F /  16.3 °C 45.5 °F /  7.5 °C 30in /  1017.3hPa NNW 2mph /  3.2km/h 2mph /  3.2km/h 56% 0in /  0.0mm 197 W/m2
18:06 61.3 °F /  16.3 °C 45 °F /  7.2 °C 30in /  1017.3hPa ENE 2mph /  3.2km/h 5mph /  8km/h 55% 0in /  0.0mm 183 W/m2
18:11 61.3 °F /  16.3 °C 45.5 °F /  7.5 °C 30in /  1017.3hPa NW 2.9mph /  4.7km/h 4mph /  6.4km/h 56% 0in /  0.0mm 146 W/m2
18:16 61.2 °F /  16.2 °C 45.3 °F /  7.4 °C 30in /  1017.3hPa NNW 2.9mph /  4.7km/h 3mph /  4.8km/h 56% 0in /  0.0mm 167 W/m2
18:21 61.2 °F /  16.2 °C 45.3 °F /  7.4 °C 30in /  1016.9hPa WNW 0.9mph /  1.4km/h 3mph /  4.8km/h 56% 0in /  0.0mm 185 W/m2
18:26 61.2 °F /  16.2 °C 45.9 °F /  7.7 °C 30in /  1016.9hPa West 4mph /  6.4km/h 4mph /  6.4km/h 57% 0in /  0.0mm 160 W/m2
18:31 61.2 °F /  16.2 °C 45.3 °F /  7.4 °C 30in /  1016.9hPa Calm   3mph /  4.8km/h 56% 0in /  0.0mm 155 W/m2
18:36 61.3 °F /  16.3 °C 45.5 °F /  7.5 °C 30in /  1016.9hPa West 0.9mph /  1.4km/h 6mph /  9.7km/h 56% 0in /  0.0mm 146 W/m2
18:41 61.2 °F /  16.2 °C 45.9 °F /  7.7 °C 30in /  1016.9hPa North 2mph /  3.2km/h 3mph /  4.8km/h 57% 0in /  0.0mm 135 W/m2
18:46 61.2 °F /  16.2 °C 45.9 °F /  7.7 °C 30in /  1016.9hPa WNW 2.9mph /  4.7km/h 6mph /  9.7km/h 57% 0in /  0.0mm 125 W/m2
18:51 61.2 °F /  16.2 °C 45.9 °F /  7.7 °C 30in /  1016.9hPa NW 0.9mph /  1.4km/h 3mph /  4.8km/h 57% 0in /  0.0mm 134 W/m2
18:56 61.2 °F /  16.2 °C 45.3 °F /  7.4 °C 30in /  1016.9hPa WSW 0.9mph /  1.4km/h 8mph /  12.9km/h 56% 0in /  0.0mm 118 W/m2
19:01 61.2 °F /  16.2 °C 45.3 °F /  7.4 °C 30in /  1016.9hPa Calm   3mph /  4.8km/h 56% 0in /  0.0mm 86 W/m2
19:06 61 °F /  16.1 °C 44.8 °F /  7.1 °C 30in /  1016.9hPa NNW 0.9mph /  1.4km/h 6mph /  9.7km/h 55% 0in /  0.0mm 79 W/m2
19:11 61 °F /  16.1 °C 44.8 °F /  7.1 °C 30in /  1016.6hPa WSW 0.9mph /  1.4km/h 3mph /  4.8km/h 55% 0in /  0.0mm 90 W/m2
19:16 60.8 °F /  16 °C 45 °F /  7.2 °C 30in /  1016.3hPa East 2mph /  3.2km/h 2mph /  3.2km/h 56% 0in /  0.0mm 88 W/m2
19:21 60.8 °F /  16 °C 44.6 °F /  7 °C 30in /  1016.3hPa Calm   1mph /  1.6km/h 55% 0in /  0.0mm 100 W/m2
19:26 60.8 °F /  16 °C 44.6 °F /  7 °C 30in /  1016.6hPa NNW 0.9mph /  1.4km/h 3mph /  4.8km/h 55% 0in /  0.0mm 93 W/m2
19:31 60.6 °F /  15.9 °C 44.4 °F /  6.9 °C 30in /  1016.6hPa NNW 2mph /  3.2km/h 6mph /  9.7km/h 55% 0in /  0.0mm 93 W/m2
19:36 60.4 °F /  15.8 °C 45.1 °F /  7.3 °C 30in /  1016.6hPa NNW 0.9mph /  1.4km/h 2mph /  3.2km/h 57% 0in /  0.0mm 93 W/m2
19:41 60.4 °F /  15.8 °C 44.2 °F /  6.8 °C 30in /  1016.3hPa Calm   3mph /  4.8km/h 55% 0in /  0.0mm 95 W/m2
19:46 60.4 °F /  15.8 °C 45.1 °F /  7.3 °C 30in /  1016.3hPa Calm     57% 0in /  0.0mm 90 W/m2
19:51 60.3 °F /  15.7 °C 45 °F /  7.2 °C 30in /  1016.3hPa Calm   1mph /  1.6km/h 57% 0in /  0.0mm 67 W/m2
19:56 60.1 °F /  15.6 °C 44.8 °F /  7.1 °C 30in /  1016.3hPa ESE 0.9mph /  1.4km/h 2mph /  3.2km/h 57% 0in /  0.0mm 62 W/m2
20:01 60.1 °F /  15.6 °C 45.3 °F /  7.4 °C 30in /  1016.3hPa Calm   1mph /  1.6km/h 58% 0in /  0.0mm 49 W/m2
20:06 59.7 °F /  15.4 °C 44.1 °F /  6.7 °C 30in /  1016.3hPa WSW 0.9mph /  1.4km/h 2mph /  3.2km/h 56% 0in /  0.0mm 44 W/m2
20:11 59.5 °F /  15.3 °C 44.2 °F /  6.8 °C 30in /  1016.3hPa WNW 2mph /  3.2km/h 3mph /  4.8km/h 57% 0in /  0.0mm 42 W/m2
20:16 59.5 °F /  15.3 °C 44.2 °F /  6.8 °C 30in /  1015.9hPa East 2mph /  3.2km/h 3mph /  4.8km/h 57% 0in /  0.0mm 39 W/m2
20:21 59.4 °F /  15.2 °C 45.5 °F /  7.5 °C 30in /  1015.9hPa East 0.9mph /  1.4km/h 1mph /  1.6km/h 60% 0in /  0.0mm 39 W/m2
20:26 59.2 °F /  15.1 °C 46.2 °F /  7.9 °C 30in /  1015.9hPa Calm   3mph /  4.8km/h 62% 0in /  0.0mm 32 W/m2
20:31 59 °F /  15 °C 46.4 °F /  8 °C 30in /  1015.9hPa Calm     63% 0in /  0.0mm 25 W/m2
20:36 58.6 °F /  14.8 °C 46 °F /  7.8 °C 30in /  1015.6hPa Calm   1mph /  1.6km/h 63% 0in /  0.0mm 23 W/m2
20:41 58.5 °F /  14.7 °C 46.8 °F /  8.2 °C 30in /  1015.6hPa East 0.9mph /  1.4km/h 1mph /  1.6km/h 65% 0in /  0.0mm 23 W/m2
20:46 58.3 °F /  14.6 °C 46.9 °F /  8.3 °C 30in /  1015.6hPa Calm     66% 0in /  0.0mm 19 W/m2
20:51 58.1 °F /  14.5 °C 47.1 °F /  8.4 °C 30in /  1015.2hPa ENE 0.9mph /  1.4km/h 3mph /  4.8km/h 67% 0in /  0.0mm 14 W/m2
20:56 57.7 °F /  14.3 °C 46.9 °F /  8.3 °C 30in /  1015.2hPa Calm   1mph /  1.6km/h 67% 0in /  0.0mm 11 W/m2
21:01 57.4 °F /  14.1 °C 47.3 °F /  8.5 °C 30in /  1015.2hPa Calm   3mph /  4.8km/h 69% 0in /  0.0mm 7 W/m2
21:06 57 °F /  13.9 °C 47.3 °F /  8.5 °C 30in /  1015.2hPa Calm   1mph /  1.6km/h 70% 0in /  0.0mm 7 W/m2
21:11 56.8 °F /  13.8 °C 47.5 °F /  8.6 °C 30in /  1015.2hPa Calm   1mph /  1.6km/h 71% 0in /  0.0mm 5 W/m2
21:16 56.7 °F /  13.7 °C 47.3 °F /  8.5 °C 30in /  1015.2hPa ENE 0.9mph /  1.4km/h 1mph /  1.6km/h 71% 0in /  0.0mm 0 W/m2
21:21 56.3 °F /  13.5 °C 47.8 °F /  8.8 °C 30in /  1014.9hPa Calm   1mph /  1.6km/h 73% 0in /  0.0mm 0 W/m2
21:26 55.9 °F /  13.3 °C 47.5 °F /  8.6 °C 30in /  1014.9hPa ENE 0.9mph /  1.4km/h 1mph /  1.6km/h 73% 0in /  0.0mm 5 W/m2
21:31 55.6 °F /  13.1 °C 47.1 °F /  8.4 °C 30in /  1014.9hPa Calm     73% 0in /  0.0mm 0 W/m2
21:36 55.2 °F /  12.9 °C 47.1 °F /  8.4 °C 30in /  1014.9hPa ENE 0.9mph /  1.4km/h 1mph /  1.6km/h 74% 0in /  0.0mm 0 W/m2
21:42 55 °F /  12.8 °C 46.9 °F /  8.3 °C 30in /  1014.9hPa Calm     74% 0in /  0.0mm 0 W/m2
21:47 54.7 °F /  12.6 °C 46.9 °F /  8.3 °C 30in /  1014.9hPa ENE 0.9mph /  1.4km/h 1mph /  1.6km/h 75% 0in /  0.0mm 0 W/m2
21:52 54.5 °F /  12.5 °C 46.8 °F /  8.2 °C 30in /  1014.9hPa Calm   1mph /  1.6km/h 75% 0in /  0.0mm 0 W/m2
21:57 54.3 °F /  12.4 °C 46.6 °F /  8.1 °C 30in /  1014.6hPa Calm     75% 0in /  0.0mm 0 W/m2
22:02 54.1 °F /  12.3 °C 46.8 °F /  8.2 °C 30in /  1014.6hPa Calm     76% 0in /  0.0mm 0 W/m2
22:07 54.1 °F /  12.3 °C 47.1 °F /  8.4 °C 30in /  1014.6hPa SE 2mph /  3.2km/h 2mph /  3.2km/h 77% 0in /  0.0mm 0 W/m2
22:12 54 °F /  12.2 °C 46.9 °F /  8.3 °C 30in /  1014.6hPa SE 0.9mph /  1.4km/h 3mph /  4.8km/h 77% 0in /  0.0mm 0 W/m2
22:17 54 °F /  12.2 °C 46.9 °F /  8.3 °C 30in /  1014.6hPa SE 0.9mph /  1.4km/h 2mph /  3.2km/h 77% 0in /  0.0mm 0 W/m2
22:22 54 °F /  12.2 °C 46.6 °F /  8.1 °C 30in /  1014.6hPa Calm     76% 0in /  0.0mm 0 W/m2
22:27 54 °F /  12.2 °C 46.6 °F /  8.1 °C 30in /  1014.2hPa Calm   2mph /  3.2km/h 76% 0in /  0.0mm 0 W/m2
22:32 54 °F /  12.2 °C 46.2 °F /  7.9 °C 30in /  1014.6hPa Calm   2mph /  3.2km/h 75% 0in /  0.0mm 0 W/m2
22:37 54.1 °F /  12.3 °C 46 °F /  7.8 °C 30in /  1014.6hPa SSW 2mph /  3.2km/h 2mph /  3.2km/h 74% 0in /  0.0mm 0 W/m2
22:42 54.7 °F /  12.6 °C 45.9 °F /  7.7 °C 30in /  1014.6hPa Calm   1mph /  1.6km/h 72% 0in /  0.0mm 0 W/m2
22:47 55 °F /  12.8 °C 45.5 °F /  7.5 °C 30in /  1014.2hPa WNW 0.9mph /  1.4km/h 3mph /  4.8km/h 70% 0in /  0.0mm 0 W/m2
22:52 55.8 °F /  13.2 °C 45.7 °F /  7.6 °C 30in /  1014.2hPa NNE 0.9mph /  1.4km/h 3mph /  4.8km/h 69% 0in /  0.0mm 0 W/m2
22:57 56.1 °F /  13.4 °C 45.7 °F /  7.6 °C 30in /  1014.2hPa North 0.9mph /  1.4km/h 3mph /  4.8km/h 68% 0in /  0.0mm 0 W/m2
23:02 56.5 °F /  13.6 °C 45.7 °F /  7.6 °C 30in /  1014.2hPa NE 0.9mph /  1.4km/h 2mph /  3.2km/h 67% 0in /  0.0mm 0 W/m2
23:07 56.7 °F /  13.7 °C 45.9 °F /  7.7 °C 29.9in /  1013.9hPa NNE 0.9mph /  1.4km/h 2mph /  3.2km/h 67% 0in /  0.0mm 0 W/m2
23:12 56.5 °F /  13.6 °C 46 °F /  7.8 °C 29.9in /  1013.9hPa NE 2mph /  3.2km/h 4mph /  6.4km/h 68% 0in /  0.0mm 0 W/m2
23:17 56.7 °F /  13.7 °C 45.5 °F /  7.5 °C 29.9in /  1013.9hPa North 0.9mph /  1.4km/h 4mph /  6.4km/h 66% 0in /  0.0mm 0 W/m2
23:22 56.7 °F /  13.7 °C 45.5 °F /  7.5 °C 29.9in /  1013.5hPa NNW 2.9mph /  4.7km/h 4mph /  6.4km/h 66% 0in /  0.0mm 0 W/m2
23:27 56.7 °F /  13.7 °C 45.9 °F /  7.7 °C 29.9in /  1013.5hPa NNE 2mph /  3.2km/h 3mph /  4.8km/h 67% 0in /  0.0mm 0 W/m2
23:32 56.7 °F /  13.7 °C 45.5 °F /  7.5 °C 29.9in /  1013.5hPa NNE 2mph /  3.2km/h 2mph /  3.2km/h 66% 0in /  0.0mm 0 W/m2
23:37 56.7 °F /  13.7 °C 45.5 °F /  7.5 °C 29.9in /  1013.5hPa NNW 2mph /  3.2km/h 3mph /  4.8km/h 66% 0in /  0.0mm 0 W/m2
23:42 56.7 °F /  13.7 °C 45.5 °F /  7.5 °C 29.9in /  1013.5hPa Calm   4mph /  6.4km/h 66% 0in /  0.0mm 0 W/m2
23:47 56.7 °F /  13.7 °C 45.5 °F /  7.5 °C 29.9in /  1013.5hPa Calm   5mph /  8km/h 66% 0in /  0.0mm 0 W/m2
23:52 56.7 °F /  13.7 °C 45.5 °F /  7.5 °C 29.9in /  1013.5hPa NNE 2mph /  3.2km/h 3mph /  4.8km/h 66% 0in /  0.0mm 0 W/m2
23:57 56.7 °F /  13.7 °C 45.5 °F /  7.5 °C 29.9in /  1013.2hPa ENE 2mph /  3.2km/h 5mph /  8km/h 66% 0in /  0.0mm 0 W/m2
Juneau County Weather
Compliments of Weather Underground - 2 mb